sensor_id;sensor_type;location;lat;lon;timestamp;P1;durP1;ratioP1;P2;durP2;ratioP2
65567;SDS011;52211;50.154;8.682;2022-08-03T00:00:39;4.13;;;3.83;;
65567;SDS011;52211;50.154;8.682;2022-08-03T00:03:06;4.00;;;3.70;;
65567;SDS011;52211;50.154;8.682;2022-08-03T00:05:35;3.53;;;3.33;;
65567;SDS011;52211;50.154;8.682;2022-08-03T00:08:25;4.60;;;3.97;;
65567;SDS011;52211;50.154;8.682;2022-08-03T00:10:52;3.53;;;3.37;;
65567;SDS011;52211;50.154;8.682;2022-08-03T00:13:18;3.57;;;3.40;;
65567;SDS011;52211;50.154;8.682;2022-08-03T00:15:48;4.07;;;3.70;;
65567;SDS011;52211;50.154;8.682;2022-08-03T00:18:17;4.03;;;3.83;;
65567;SDS011;52211;50.154;8.682;2022-08-03T00:20:46;4.13;;;3.83;;
65567;SDS011;52211;50.154;8.682;2022-08-03T00:23:16;4.10;;;3.90;;
65567;SDS011;52211;50.154;8.682;2022-08-03T00:25:43;3.77;;;3.57;;
65567;SDS011;52211;50.154;8.682;2022-08-03T00:28:10;4.20;;;3.90;;
65567;SDS011;52211;50.154;8.682;2022-08-03T00:30:40;3.90;;;3.60;;
65567;SDS011;52211;50.154;8.682;2022-08-03T00:33:12;3.87;;;3.57;;
65567;SDS011;52211;50.154;8.682;2022-08-03T00:35:42;3.90;;;3.70;;
65567;SDS011;52211;50.154;8.682;2022-08-03T00:38:16;3.73;;;3.53;;
65567;SDS011;52211;50.154;8.682;2022-08-03T00:40:48;4.13;;;3.93;;
65567;SDS011;52211;50.154;8.682;2022-08-03T00:43:15;4.20;;;4.00;;
65567;SDS011;52211;50.154;8.682;2022-08-03T00:45:44;3.77;;;3.63;;
65567;SDS011;52211;50.154;8.682;2022-08-03T00:48:16;4.50;;;4.23;;
65567;SDS011;52211;50.154;8.682;2022-08-03T00:50:59;4.00;;;3.80;;
65567;SDS011;52211;50.154;8.682;2022-08-03T00:53:26;4.00;;;3.80;;
65567;SDS011;52211;50.154;8.682;2022-08-03T00:55:58;4.40;;;4.20;;
65567;SDS011;52211;50.154;8.682;2022-08-03T00:58:27;4.43;;;4.03;;
65567;SDS011;52211;50.154;8.682;2022-08-03T01:00:57;4.50;;;4.20;;
65567;SDS011;52211;50.154;8.682;2022-08-03T01:03:24;3.70;;;3.50;;
65567;SDS011;52211;50.154;8.682;2022-08-03T01:08:46;4.23;;;4.03;;
65567;SDS011;52211;50.154;8.682;2022-08-03T01:14:31;3.97;;;3.77;;
65567;SDS011;52211;50.154;8.682;2022-08-03T01:17:18;4.00;;;3.80;;
65567;SDS011;52211;50.154;8.682;2022-08-03T01:28:37;3.87;;;3.67;;
65567;SDS011;52211;50.154;8.682;2022-08-03T01:31:43;4.07;;;3.77;;
65567;SDS011;52211;50.154;8.682;2022-08-03T01:34:40;3.63;;;3.43;;
65567;SDS011;52211;50.154;8.682;2022-08-03T01:37:14;3.60;;;3.40;;
65567;SDS011;52211;50.154;8.682;2022-08-03T01:39:55;3.90;;;3.70;;
65567;SDS011;52211;50.154;8.682;2022-08-03T01:42:35;3.77;;;3.57;;
65567;SDS011;52211;50.154;8.682;2022-08-03T01:45:04;4.27;;;3.87;;
65567;SDS011;52211;50.154;8.682;2022-08-03T01:47:38;3.90;;;3.70;;
65567;SDS011;52211;50.154;8.682;2022-08-03T01:50:11;4.10;;;3.90;;
65567;SDS011;52211;50.154;8.682;2022-08-03T01:52:44;3.93;;;3.63;;
65567;SDS011;52211;50.154;8.682;2022-08-03T01:55:16;3.90;;;3.70;;
65567;SDS011;52211;50.154;8.682;2022-08-03T01:57:45;3.80;;;3.60;;
65567;SDS011;52211;50.154;8.682;2022-08-03T02:00:32;3.97;;;3.63;;
65567;SDS011;52211;50.154;8.682;2022-08-03T02:03:05;3.90;;;3.70;;
65567;SDS011;52211;50.154;8.682;2022-08-03T02:05:33;4.07;;;3.87;;
65567;SDS011;52211;50.154;8.682;2022-08-03T02:08:08;4.53;;;3.77;;
65567;SDS011;52211;50.154;8.682;2022-08-03T02:10:39;3.73;;;3.63;;
65567;SDS011;52211;50.154;8.682;2022-08-03T02:13:13;4.17;;;3.97;;
65567;SDS011;52211;50.154;8.682;2022-08-03T02:15:45;4.13;;;3.80;;
65567;SDS011;52211;50.154;8.682;2022-08-03T02:18:17;3.77;;;3.60;;
65567;SDS011;52211;50.154;8.682;2022-08-03T02:20:49;3.80;;;3.60;;
65567;SDS011;52211;50.154;8.682;2022-08-03T02:23:17;3.73;;;3.53;;
65567;SDS011;52211;50.154;8.682;2022-08-03T02:25:50;3.77;;;3.50;;
65567;SDS011;52211;50.154;8.682;2022-08-03T02:28:31;3.90;;;3.63;;
65567;SDS011;52211;50.154;8.682;2022-08-03T02:31:06;3.60;;;3.40;;
65567;SDS011;52211;50.154;8.682;2022-08-03T02:33:41;3.90;;;3.70;;
65567;SDS011;52211;50.154;8.682;2022-08-03T02:36:24;3.70;;;3.50;;
65567;SDS011;52211;50.154;8.682;2022-08-03T02:38:58;3.70;;;3.50;;
65567;SDS011;52211;50.154;8.682;2022-08-03T02:41:30;3.83;;;3.53;;
65567;SDS011;52211;50.154;8.682;2022-08-03T02:44:16;4.07;;;3.87;;
65567;SDS011;52211;50.154;8.682;2022-08-03T02:46:52;4.07;;;3.87;;
65567;SDS011;52211;50.154;8.682;2022-08-03T02:49:29;3.80;;;3.50;;
65567;SDS011;52211;50.154;8.682;2022-08-03T02:52:15;4.03;;;3.83;;
65567;SDS011;52211;50.154;8.682;2022-08-03T02:54:47;4.03;;;3.83;;
65567;SDS011;52211;50.154;8.682;2022-08-03T02:57:21;4.00;;;3.70;;
65567;SDS011;52211;50.154;8.682;2022-08-03T02:59:51;3.80;;;3.50;;
65567;SDS011;52211;50.154;8.682;2022-08-03T03:02:22;4.03;;;3.80;;
65567;SDS011;52211;50.154;8.682;2022-08-03T03:04:51;4.97;;;3.23;;
65567;SDS011;52211;50.154;8.682;2022-08-03T03:07:42;3.73;;;3.53;;
65567;SDS011;52211;50.154;8.682;2022-08-03T03:10:18;3.73;;;3.53;;
65567;SDS011;52211;50.154;8.682;2022-08-03T03:12:53;3.93;;;3.73;;
65567;SDS011;52211;50.154;8.682;2022-08-03T03:15:28;4.33;;;4.03;;
65567;SDS011;52211;50.154;8.682;2022-08-03T03:18:00;4.20;;;3.90;;
65567;SDS011;52211;50.154;8.682;2022-08-03T03:20:29;4.43;;;4.13;;
65567;SDS011;52211;50.154;8.682;2022-08-03T03:23:01;4.10;;;3.90;;
65567;SDS011;52211;50.154;8.682;2022-08-03T03:25:30;3.87;;;3.60;;
65567;SDS011;52211;50.154;8.682;2022-08-03T03:27:59;4.80;;;4.43;;
65567;SDS011;52211;50.154;8.682;2022-08-03T03:30:31;4.13;;;3.73;;
65567;SDS011;52211;50.154;8.682;2022-08-03T03:33:01;3.87;;;3.57;;
65567;SDS011;52211;50.154;8.682;2022-08-03T03:35:28;4.17;;;3.97;;
65567;SDS011;52211;50.154;8.682;2022-08-03T03:38:03;4.00;;;3.80;;
65567;SDS011;52211;50.154;8.682;2022-08-03T03:40:35;4.13;;;3.87;;
65567;SDS011;52211;50.154;8.682;2022-08-03T03:43:07;4.43;;;4.03;;
65567;SDS011;52211;50.154;8.682;2022-08-03T03:45:41;4.47;;;4.07;;
65567;SDS011;52211;50.154;8.682;2022-08-03T03:48:14;4.27;;;3.90;;
65567;SDS011;52211;50.154;8.682;2022-08-03T03:50:42;3.90;;;3.70;;
65567;SDS011;52211;50.154;8.682;2022-08-03T03:53:12;4.30;;;4.10;;
65567;SDS011;52211;50.154;8.682;2022-08-03T03:55:40;4.30;;;3.97;;
65567;SDS011;52211;50.154;8.682;2022-08-03T03:58:27;4.53;;;4.23;;
65567;SDS011;52211;50.154;8.682;2022-08-03T04:00:56;4.20;;;4.00;;
65567;SDS011;52211;50.154;8.682;2022-08-03T04:03:26;4.00;;;3.80;;
65567;SDS011;52211;50.154;8.682;2022-08-03T04:05:53;4.83;;;4.47;;
65567;SDS011;52211;50.154;8.682;2022-08-03T04:08:39;4.50;;;4.20;;
65567;SDS011;52211;50.154;8.682;2022-08-03T04:11:26;4.93;;;4.63;;
65567;SDS011;52211;50.154;8.682;2022-08-03T04:14:05;4.03;;;3.77;;
65567;SDS011;52211;50.154;8.682;2022-08-03T04:16:40;4.33;;;4.07;;
65567;SDS011;52211;50.154;8.682;2022-08-03T04:19:31;4.10;;;3.90;;
65567;SDS011;52211;50.154;8.682;2022-08-03T04:22:06;4.30;;;4.10;;
65567;SDS011;52211;50.154;8.682;2022-08-03T04:24:45;4.40;;;4.03;;
65567;SDS011;52211;50.154;8.682;2022-08-03T04:27:22;4.70;;;4.30;;
65567;SDS011;52211;50.154;8.682;2022-08-03T04:29:56;4.40;;;4.10;;
65567;SDS011;52211;50.154;8.682;2022-08-03T04:32:27;4.70;;;4.40;;
65567;SDS011;52211;50.154;8.682;2022-08-03T04:34:57;4.57;;;4.30;;
65567;SDS011;52211;50.154;8.682;2022-08-03T04:40:15;5.90;;;4.90;;
65567;SDS011;52211;50.154;8.682;2022-08-03T04:43:02;5.90;;;5.37;;
65567;SDS011;52211;50.154;8.682;2022-08-03T04:45:31;4.80;;;4.53;;
65567;SDS011;52211;50.154;8.682;2022-08-03T04:48:01;5.07;;;4.67;;
65567;SDS011;52211;50.154;8.682;2022-08-03T04:50:29;4.60;;;4.40;;
65567;SDS011;52211;50.154;8.682;2022-08-03T04:52:59;4.90;;;4.70;;
65567;SDS011;52211;50.154;8.682;2022-08-03T04:55:27;4.60;;;4.40;;
65567;SDS011;52211;50.154;8.682;2022-08-03T04:57:58;4.93;;;4.73;;
65567;SDS011;52211;50.154;8.682;2022-08-03T05:00:31;5.23;;;4.87;;
65567;SDS011;52211;50.154;8.682;2022-08-03T05:03:01;5.27;;;4.97;;
65567;SDS011;52211;50.154;8.682;2022-08-03T05:05:27;4.53;;;4.33;;
65567;SDS011;52211;50.154;8.682;2022-08-03T05:08:15;4.90;;;4.60;;
65567;SDS011;52211;50.154;8.682;2022-08-03T05:10:53;4.67;;;4.47;;
65567;SDS011;52211;50.154;8.682;2022-08-03T05:13:24;5.80;;;5.37;;
65567;SDS011;52211;50.154;8.682;2022-08-03T05:15:51;5.67;;;5.37;;
65567;SDS011;52211;50.154;8.682;2022-08-03T05:18:18;5.10;;;4.80;;
65567;SDS011;52211;50.154;8.682;2022-08-03T05:20:48;5.00;;;4.70;;
65567;SDS011;52211;50.154;8.682;2022-08-03T05:23:18;4.80;;;4.50;;
65567;SDS011;52211;50.154;8.682;2022-08-03T05:25:49;5.20;;;4.90;;
65567;SDS011;52211;50.154;8.682;2022-08-03T05:28:16;4.83;;;4.63;;
65567;SDS011;52211;50.154;8.682;2022-08-03T05:30:47;4.70;;;4.40;;
65567;SDS011;52211;50.154;8.682;2022-08-03T05:33:14;4.60;;;4.30;;
65567;SDS011;52211;50.154;8.682;2022-08-03T05:35:44;4.60;;;4.30;;
65567;SDS011;52211;50.154;8.682;2022-08-03T05:38:28;5.30;;;4.90;;
65567;SDS011;52211;50.154;8.682;2022-08-03T05:41:00;4.70;;;4.30;;
65567;SDS011;52211;50.154;8.682;2022-08-03T05:43:49;4.63;;;4.43;;
65567;SDS011;52211;50.154;8.682;2022-08-03T05:46:18;4.60;;;4.20;;
65567;SDS011;52211;50.154;8.682;2022-08-03T05:48:50;4.97;;;4.57;;
65567;SDS011;52211;50.154;8.682;2022-08-03T05:51:18;5.17;;;4.67;;
65567;SDS011;52211;50.154;8.682;2022-08-03T05:53:44;4.30;;;4.10;;
65567;SDS011;52211;50.154;8.682;2022-08-03T05:56:11;4.90;;;4.50;;
65567;SDS011;52211;50.154;8.682;2022-08-03T05:58:42;5.53;;;5.00;;
65567;SDS011;52211;50.154;8.682;2022-08-03T06:01:13;5.60;;;4.90;;
65567;SDS011;52211;50.154;8.682;2022-08-03T06:03:43;4.57;;;4.23;;
65567;SDS011;52211;50.154;8.682;2022-08-03T06:06:13;4.77;;;4.47;;
65567;SDS011;52211;50.154;8.682;2022-08-03T06:08:43;4.60;;;4.20;;
65567;SDS011;52211;50.154;8.682;2022-08-03T06:11:11;5.87;;;5.37;;
65567;SDS011;52211;50.154;8.682;2022-08-03T06:13:43;4.40;;;4.00;;
65567;SDS011;52211;50.154;8.682;2022-08-03T06:16:10;5.07;;;4.50;;
65567;SDS011;52211;50.154;8.682;2022-08-03T06:18:37;4.70;;;4.40;;
65567;SDS011;52211;50.154;8.682;2022-08-03T06:21:06;5.23;;;4.57;;
65567;SDS011;52211;50.154;8.682;2022-08-03T06:23:41;4.73;;;4.43;;
65567;SDS011;52211;50.154;8.682;2022-08-03T06:26:20;5.20;;;4.67;;
65567;SDS011;52211;50.154;8.682;2022-08-03T06:28:49;5.13;;;4.63;;
65567;SDS011;52211;50.154;8.682;2022-08-03T06:31:21;4.30;;;4.00;;
65567;SDS011;52211;50.154;8.682;2022-08-03T06:33:59;4.30;;;4.00;;
65567;SDS011;52211;50.154;8.682;2022-08-03T06:36:51;4.60;;;4.20;;
65567;SDS011;52211;50.154;8.682;2022-08-03T06:39:27;3.87;;;3.57;;
65567;SDS011;52211;50.154;8.682;2022-08-03T06:41:57;3.90;;;3.70;;
65567;SDS011;52211;50.154;8.682;2022-08-03T06:44:24;4.87;;;4.07;;
65567;SDS011;52211;50.154;8.682;2022-08-03T06:46:53;5.40;;;3.93;;
65567;SDS011;52211;50.154;8.682;2022-08-03T06:49:23;4.60;;;4.20;;
65567;SDS011;52211;50.154;8.682;2022-08-03T06:51:55;4.63;;;4.33;;
65567;SDS011;52211;50.154;8.682;2022-08-03T06:54:31;4.43;;;4.13;;
65567;SDS011;52211;50.154;8.682;2022-08-03T06:56:58;5.13;;;3.90;;
65567;SDS011;52211;50.154;8.682;2022-08-03T06:59:28;3.87;;;3.67;;
65567;SDS011;52211;50.154;8.682;2022-08-03T07:02:15;4.00;;;3.60;;
65567;SDS011;52211;50.154;8.682;2022-08-03T07:04:48;4.23;;;3.80;;
65567;SDS011;52211;50.154;8.682;2022-08-03T07:07:18;3.87;;;3.67;;
65567;SDS011;52211;50.154;8.682;2022-08-03T07:09:45;4.10;;;3.73;;
65567;SDS011;52211;50.154;8.682;2022-08-03T07:12:23;3.97;;;3.67;;
65567;SDS011;52211;50.154;8.682;2022-08-03T07:14:55;3.70;;;3.40;;
65567;SDS011;52211;50.154;8.682;2022-08-03T07:17:30;4.00;;;3.80;;
65567;SDS011;52211;50.154;8.682;2022-08-03T07:20:04;3.50;;;3.30;;
65567;SDS011;52211;50.154;8.682;2022-08-03T07:22:36;3.80;;;3.60;;
65567;SDS011;52211;50.154;8.682;2022-08-03T07:25:02;4.10;;;3.20;;
65567;SDS011;52211;50.154;8.682;2022-08-03T07:27:32;3.80;;;3.50;;
65567;SDS011;52211;50.154;8.682;2022-08-03T07:30:04;3.80;;;3.60;;
65567;SDS011;52211;50.154;8.682;2022-08-03T07:32:40;3.67;;;3.43;;
65567;SDS011;52211;50.154;8.682;2022-08-03T07:35:15;3.33;;;3.23;;
65567;SDS011;52211;50.154;8.682;2022-08-03T07:37:51;3.57;;;3.33;;
65567;SDS011;52211;50.154;8.682;2022-08-03T07:40:25;3.50;;;3.30;;
65567;SDS011;52211;50.154;8.682;2022-08-03T07:42:57;3.47;;;3.27;;
65567;SDS011;52211;50.154;8.682;2022-08-03T07:45:24;3.57;;;3.37;;
65567;SDS011;52211;50.154;8.682;2022-08-03T07:47:52;4.30;;;4.07;;
65567;SDS011;52211;50.154;8.682;2022-08-03T07:50:26;3.50;;;3.30;;
65567;SDS011;52211;50.154;8.682;2022-08-03T07:52:56;3.60;;;3.40;;
65567;SDS011;52211;50.154;8.682;2022-08-03T07:55:26;3.10;;;3.00;;
65567;SDS011;52211;50.154;8.682;2022-08-03T08:00:49;3.37;;;3.17;;
65567;SDS011;52211;50.154;8.682;2022-08-03T08:03:18;3.10;;;3.00;;
65567;SDS011;52211;50.154;8.682;2022-08-03T08:05:47;3.50;;;3.30;;
65567;SDS011;52211;50.154;8.682;2022-08-03T08:08:14;3.27;;;3.17;;
65567;SDS011;52211;50.154;8.682;2022-08-03T08:10:41;3.10;;;3.00;;
65567;SDS011;52211;50.154;8.682;2022-08-03T08:13:23;3.53;;;3.33;;
65567;SDS011;52211;50.154;8.682;2022-08-03T08:15:53;3.07;;;2.97;;
65567;SDS011;52211;50.154;8.682;2022-08-03T08:18:20;6.40;;;3.23;;
65567;SDS011;52211;50.154;8.682;2022-08-03T08:20:47;3.30;;;3.10;;
65567;SDS011;52211;50.154;8.682;2022-08-03T08:23:13;3.43;;;3.20;;
65567;SDS011;52211;50.154;8.682;2022-08-03T08:26:08;3.23;;;3.03;;
65567;SDS011;52211;50.154;8.682;2022-08-03T08:28:35;3.00;;;2.90;;
65567;SDS011;52211;50.154;8.682;2022-08-03T08:31:04;2.90;;;2.80;;
65567;SDS011;52211;50.154;8.682;2022-08-03T08:33:31;3.83;;;3.50;;
65567;SDS011;52211;50.154;8.682;2022-08-03T08:36:23;3.27;;;3.07;;
65567;SDS011;52211;50.154;8.682;2022-08-03T08:38:50;3.50;;;3.30;;
65567;SDS011;52211;50.154;8.682;2022-08-03T08:41:19;3.53;;;2.77;;
65567;SDS011;52211;50.154;8.682;2022-08-03T08:43:46;2.80;;;2.70;;
65567;SDS011;52211;50.154;8.682;2022-08-03T08:46:15;3.40;;;3.20;;
65567;SDS011;52211;50.154;8.682;2022-08-03T08:48:49;2.93;;;2.83;;
65567;SDS011;52211;50.154;8.682;2022-08-03T08:51:29;3.50;;;2.70;;
65567;SDS011;52211;50.154;8.682;2022-08-03T08:54:23;2.87;;;2.73;;
65567;SDS011;52211;50.154;8.682;2022-08-03T08:56:52;2.80;;;2.70;;
65567;SDS011;52211;50.154;8.682;2022-08-03T08:59:24;3.10;;;2.90;;
65567;SDS011;52211;50.154;8.682;2022-08-03T09:02:14;3.97;;;3.53;;
65567;SDS011;52211;50.154;8.682;2022-08-03T09:04:41;3.17;;;3.07;;
65567;SDS011;52211;50.154;8.682;2022-08-03T09:07:13;3.00;;;2.80;;
65567;SDS011;52211;50.154;8.682;2022-08-03T09:09:45;3.53;;;3.23;;
65567;SDS011;52211;50.154;8.682;2022-08-03T09:12:58;2.80;;;2.70;;
65567;SDS011;52211;50.154;8.682;2022-08-03T09:15:28;3.50;;;3.30;;
65567;SDS011;52211;50.154;8.682;2022-08-03T09:18:01;3.43;;;3.23;;
65567;SDS011;52211;50.154;8.682;2022-08-03T09:20:31;3.00;;;2.90;;
65567;SDS011;52211;50.154;8.682;2022-08-03T09:23:03;3.33;;;3.10;;
65567;SDS011;52211;50.154;8.682;2022-08-03T09:25:56;2.77;;;2.67;;
65567;SDS011;52211;50.154;8.682;2022-08-03T09:28:25;3.47;;;3.30;;
65567;SDS011;52211;50.154;8.682;2022-08-03T09:31:28;2.90;;;2.80;;
65567;SDS011;52211;50.154;8.682;2022-08-03T09:34:13;3.50;;;3.30;;
65567;SDS011;52211;50.154;8.682;2022-08-03T09:39:18;3.00;;;2.90;;
65567;SDS011;52211;50.154;8.682;2022-08-03T09:42:25;3.13;;;2.93;;
65567;SDS011;52211;50.154;8.682;2022-08-03T09:44:52;3.07;;;2.87;;
65567;SDS011;52211;50.154;8.682;2022-08-03T09:47:30;2.87;;;2.77;;
65567;SDS011;52211;50.154;8.682;2022-08-03T09:50:00;3.10;;;2.90;;
65567;SDS011;52211;50.154;8.682;2022-08-03T09:52:33;3.53;;;3.33;;
65567;SDS011;52211;50.154;8.682;2022-08-03T09:55:17;2.93;;;2.80;;
65567;SDS011;52211;50.154;8.682;2022-08-03T09:58:05;3.40;;;3.30;;
65567;SDS011;52211;50.154;8.682;2022-08-03T10:03:32;2.97;;;2.87;;
65567;SDS011;52211;50.154;8.682;2022-08-03T10:06:23;3.20;;;3.10;;
65567;SDS011;52211;50.154;8.682;2022-08-03T10:11:39;2.93;;;2.83;;
65567;SDS011;52211;50.154;8.682;2022-08-03T10:14:09;3.50;;;3.30;;
65567;SDS011;52211;50.154;8.682;2022-08-03T10:16:45;3.13;;;2.93;;
65567;SDS011;52211;50.154;8.682;2022-08-03T10:19:13;3.27;;;2.90;;
65567;SDS011;52211;50.154;8.682;2022-08-03T10:22:02;3.03;;;2.93;;
65567;SDS011;52211;50.154;8.682;2022-08-03T10:24:38;3.40;;;3.20;;
65567;SDS011;52211;50.154;8.682;2022-08-03T10:27:16;3.00;;;2.90;;
65567;SDS011;52211;50.154;8.682;2022-08-03T10:29:49;3.13;;;2.93;;
65567;SDS011;52211;50.154;8.682;2022-08-03T10:37:48;3.10;;;2.90;;
65567;SDS011;52211;50.154;8.682;2022-08-03T10:40:31;3.33;;;3.03;;
65567;SDS011;52211;50.154;8.682;2022-08-03T10:43:21;2.90;;;2.70;;
65567;SDS011;52211;50.154;8.682;2022-08-03T10:46:02;3.77;;;3.00;;
65567;SDS011;52211;50.154;8.682;2022-08-03T10:48:34;3.27;;;3.17;;
65567;SDS011;52211;50.154;8.682;2022-08-03T10:51:02;2.90;;;2.80;;
65567;SDS011;52211;50.154;8.682;2022-08-03T10:53:47;3.13;;;2.93;;
65567;SDS011;52211;50.154;8.682;2022-08-03T10:59:19;3.23;;;3.13;;
65567;SDS011;52211;50.154;8.682;2022-08-03T11:02:14;3.10;;;2.90;;
65567;SDS011;52211;50.154;8.682;2022-08-03T11:04:43;2.83;;;2.73;;
65567;SDS011;52211;50.154;8.682;2022-08-03T11:07:17;2.90;;;2.80;;
65567;SDS011;52211;50.154;8.682;2022-08-03T11:09:52;3.40;;;3.30;;
65567;SDS011;52211;50.154;8.682;2022-08-03T11:12:28;3.30;;;3.00;;
65567;SDS011;52211;50.154;8.682;2022-08-03T11:14:59;3.00;;;2.90;;
65567;SDS011;52211;50.154;8.682;2022-08-03T11:17:35;3.00;;;2.90;;
65567;SDS011;52211;50.154;8.682;2022-08-03T11:23:43;3.03;;;2.83;;
65567;SDS011;52211;50.154;8.682;2022-08-03T11:26:31;2.97;;;2.77;;
65567;SDS011;52211;50.154;8.682;2022-08-03T11:31:56;2.70;;;2.60;;
65567;SDS011;52211;50.154;8.682;2022-08-03T11:34:26;3.63;;;3.42;;
65567;SDS011;52211;50.154;8.682;2022-08-03T11:39:55;3.70;;;3.50;;
65567;SDS011;52211;50.154;8.682;2022-08-03T11:45:00;2.90;;;2.80;;
65567;SDS011;52211;50.154;8.682;2022-08-03T11:47:35;2.70;;;2.60;;
65567;SDS011;52211;50.154;8.682;2022-08-03T11:50:16;3.47;;;3.28;;
65567;SDS011;52211;50.154;8.682;2022-08-03T11:52:45;3.50;;;3.30;;
65567;SDS011;52211;50.154;8.682;2022-08-03T11:55:13;3.08;;;2.97;;
65567;SDS011;52211;50.154;8.682;2022-08-03T11:57:49;3.55;;;3.10;;
65567;SDS011;52211;50.154;8.682;2022-08-03T12:00:38;2.53;;;2.42;;
65567;SDS011;52211;50.154;8.682;2022-08-03T12:03:07;3.10;;;3.00;;
65567;SDS011;52211;50.154;8.682;2022-08-03T12:05:40;3.10;;;3.00;;
65567;SDS011;52211;50.154;8.682;2022-08-03T12:10:56;3.60;;;3.40;;
65567;SDS011;52211;50.154;8.682;2022-08-03T12:13:27;3.28;;;3.17;;
65567;SDS011;52211;50.154;8.682;2022-08-03T12:16:26;3.40;;;3.17;;
65567;SDS011;52211;50.154;8.682;2022-08-03T12:19:04;3.40;;;3.30;;
65567;SDS011;52211;50.154;8.682;2022-08-03T12:21:33;4.22;;;4.03;;
65567;SDS011;52211;50.154;8.682;2022-08-03T12:24:22;3.65;;;3.45;;
65567;SDS011;52211;50.154;8.682;2022-08-03T12:26:49;3.70;;;3.60;;
65567;SDS011;52211;50.154;8.682;2022-08-03T12:29:24;4.28;;;3.97;;
65567;SDS011;52211;50.154;8.682;2022-08-03T12:31:52;3.80;;;3.70;;
65567;SDS011;52211;50.154;8.682;2022-08-03T12:34:21;6.10;;;4.85;;
65567;SDS011;52211;50.154;8.682;2022-08-03T12:36:52;4.20;;;4.00;;
65567;SDS011;52211;50.154;8.682;2022-08-03T12:39:26;3.60;;;3.50;;
65567;SDS011;52211;50.154;8.682;2022-08-03T12:41:56;4.25;;;4.05;;
65567;SDS011;52211;50.154;8.682;2022-08-03T12:44:35;3.83;;;3.63;;
65567;SDS011;52211;50.154;8.682;2022-08-03T12:47:03;3.72;;;3.63;;
65567;SDS011;52211;50.154;8.682;2022-08-03T12:49:47;3.80;;;3.67;;
65567;SDS011;52211;50.154;8.682;2022-08-03T12:52:20;4.28;;;4.00;;
65567;SDS011;52211;50.154;8.682;2022-08-03T12:54:58;3.42;;;3.25;;
65567;SDS011;52211;50.154;8.682;2022-08-03T12:57:42;4.55;;;4.35;;
65567;SDS011;52211;50.154;8.682;2022-08-03T13:00:10;4.07;;;3.83;;
65567;SDS011;52211;50.154;8.682;2022-08-03T13:02:57;4.07;;;3.88;;
65567;SDS011;52211;50.154;8.682;2022-08-03T13:05:46;4.40;;;4.20;;
65567;SDS011;52211;50.154;8.682;2022-08-03T13:08:17;5.15;;;3.50;;
65567;SDS011;52211;50.154;8.682;2022-08-03T13:10:51;4.03;;;3.75;;
65567;SDS011;52211;50.154;8.682;2022-08-03T13:13:21;3.63;;;3.50;;
65567;SDS011;52211;50.154;8.682;2022-08-03T13:16:08;3.78;;;3.67;;
65567;SDS011;52211;50.154;8.682;2022-08-03T13:18:46;3.70;;;3.60;;
65567;SDS011;52211;50.154;8.682;2022-08-03T13:21:15;3.60;;;3.50;;
65567;SDS011;52211;50.154;8.682;2022-08-03T13:23:42;4.00;;;3.90;;
65567;SDS011;52211;50.154;8.682;2022-08-03T13:26:10;3.97;;;3.78;;
65567;SDS011;52211;50.154;8.682;2022-08-03T13:28:41;3.90;;;3.70;;
65567;SDS011;52211;50.154;8.682;2022-08-03T13:31:11;3.63;;;3.53;;
65567;SDS011;52211;50.154;8.682;2022-08-03T13:33:38;3.78;;;3.65;;
65567;SDS011;52211;50.154;8.682;2022-08-03T13:36:06;4.53;;;4.32;;
65567;SDS011;52211;50.154;8.682;2022-08-03T13:38:35;4.10;;;3.90;;
65567;SDS011;52211;50.154;8.682;2022-08-03T13:41:04;4.68;;;4.38;;
65567;SDS011;52211;50.154;8.682;2022-08-03T13:43:31;4.80;;;4.40;;
65567;SDS011;52211;50.154;8.682;2022-08-03T13:46:00;3.88;;;3.78;;
65567;SDS011;52211;50.154;8.682;2022-08-03T13:48:27;4.00;;;3.80;;
65567;SDS011;52211;50.154;8.682;2022-08-03T13:51:03;4.18;;;3.97;;
65567;SDS011;52211;50.154;8.682;2022-08-03T13:53:47;4.50;;;4.20;;
65567;SDS011;52211;50.154;8.682;2022-08-03T13:56:17;4.32;;;4.20;;
65567;SDS011;52211;50.154;8.682;2022-08-03T13:58:44;4.28;;;4.07;;
65567;SDS011;52211;50.154;8.682;2022-08-03T14:01:16;3.90;;;3.80;;
65567;SDS011;52211;50.154;8.682;2022-08-03T14:04:06;4.45;;;4.00;;
65567;SDS011;52211;50.154;8.682;2022-08-03T14:06:47;3.90;;;3.80;;
65567;SDS011;52211;50.154;8.682;2022-08-03T14:09:14;4.18;;;3.97;;
65567;SDS011;52211;50.154;8.682;2022-08-03T14:11:48;4.00;;;3.90;;
65567;SDS011;52211;50.154;8.682;2022-08-03T14:14:33;3.90;;;3.70;;
65567;SDS011;52211;50.154;8.682;2022-08-03T14:17:03;3.85;;;3.75;;
65567;SDS011;52211;50.154;8.682;2022-08-03T14:19:30;3.88;;;3.67;;
65567;SDS011;52211;50.154;8.682;2022-08-03T14:21:59;3.97;;;3.88;;
65567;SDS011;52211;50.154;8.682;2022-08-03T14:24:32;3.83;;;3.72;;
65567;SDS011;52211;50.154;8.682;2022-08-03T14:26:58;4.00;;;3.90;;
65567;SDS011;52211;50.154;8.682;2022-08-03T14:29:34;4.20;;;3.80;;
65567;SDS011;52211;50.154;8.682;2022-08-03T14:32:01;4.20;;;4.00;;
65567;SDS011;52211;50.154;8.682;2022-08-03T14:34:37;4.10;;;4.00;;
65567;SDS011;52211;50.154;8.682;2022-08-03T14:37:06;4.00;;;3.90;;
65567;SDS011;52211;50.154;8.682;2022-08-03T14:39:33;4.35;;;4.07;;
65567;SDS011;52211;50.154;8.682;2022-08-03T14:42:20;3.47;;;3.38;;
65567;SDS011;52211;50.154;8.682;2022-08-03T14:44:52;4.07;;;3.90;;
65567;SDS011;52211;50.154;8.682;2022-08-03T14:47:28;3.70;;;3.60;;
65567;SDS011;52211;50.154;8.682;2022-08-03T14:49:55;4.00;;;3.80;;
65567;SDS011;52211;50.154;8.682;2022-08-03T14:52:44;3.95;;;3.75;;
65567;SDS011;52211;50.154;8.682;2022-08-03T14:55:11;4.07;;;3.97;;
65567;SDS011;52211;50.154;8.682;2022-08-03T14:57:40;4.10;;;3.90;;
65567;SDS011;52211;50.154;8.682;2022-08-03T15:00:07;4.15;;;4.00;;
65567;SDS011;52211;50.154;8.682;2022-08-03T15:02:37;3.72;;;3.63;;
65567;SDS011;52211;50.154;8.682;2022-08-03T15:05:04;4.22;;;4.13;;
65567;SDS011;52211;50.154;8.682;2022-08-03T15:07:35;6.13;;;5.93;;
65567;SDS011;52211;50.154;8.682;2022-08-03T15:10:02;4.75;;;4.50;;
65567;SDS011;52211;50.154;8.682;2022-08-03T15:12:32;4.45;;;4.10;;
65567;SDS011;52211;50.154;8.682;2022-08-03T15:15:01;4.00;;;3.90;;
65567;SDS011;52211;50.154;8.682;2022-08-03T15:17:31;4.20;;;4.10;;
65567;SDS011;52211;50.154;8.682;2022-08-03T15:20:00;3.85;;;3.75;;
65567;SDS011;52211;50.154;8.682;2022-08-03T15:22:50;4.10;;;3.80;;
65567;SDS011;52211;50.154;8.682;2022-08-03T15:25:20;4.35;;;4.07;;
65567;SDS011;52211;50.154;8.682;2022-08-03T15:28:09;4.72;;;4.53;;
65567;SDS011;52211;50.154;8.682;2022-08-03T15:30:38;4.00;;;3.90;;
65567;SDS011;52211;50.154;8.682;2022-08-03T15:33:07;4.07;;;3.88;;
65567;SDS011;52211;50.154;8.682;2022-08-03T15:35:34;4.40;;;4.20;;
65567;SDS011;52211;50.154;8.682;2022-08-03T15:38:01;6.07;;;5.78;;
65567;SDS011;52211;50.154;8.682;2022-08-03T15:40:37;4.75;;;4.57;;
65567;SDS011;52211;50.154;8.682;2022-08-03T15:43:04;4.45;;;4.25;;
65567;SDS011;52211;50.154;8.682;2022-08-03T15:45:33;3.63;;;3.53;;
65567;SDS011;52211;50.154;8.682;2022-08-03T15:48:02;3.58;;;3.47;;
65567;SDS011;52211;50.154;8.682;2022-08-03T15:50:34;3.70;;;3.60;;
65567;SDS011;52211;50.154;8.682;2022-08-03T15:53:01;3.85;;;3.75;;
65567;SDS011;52211;50.154;8.682;2022-08-03T15:55:29;3.50;;;3.28;;
65567;SDS011;52211;50.154;8.682;2022-08-03T15:58:01;4.63;;;4.43;;
65567;SDS011;52211;50.154;8.682;2022-08-03T16:00:50;3.70;;;3.60;;
65567;SDS011;52211;50.154;8.682;2022-08-03T16:03:22;3.88;;;3.78;;
65567;SDS011;52211;50.154;8.682;2022-08-03T16:05:53;4.03;;;3.92;;
65567;SDS011;52211;50.154;8.682;2022-08-03T16:08:22;3.63;;;3.50;;
65567;SDS011;52211;50.154;8.682;2022-08-03T16:10:54;4.15;;;4.05;;
65567;SDS011;52211;50.154;8.682;2022-08-03T16:13:24;3.55;;;3.45;;
65567;SDS011;52211;50.154;8.682;2022-08-03T16:16:14;3.55;;;3.45;;
65567;SDS011;52211;50.154;8.682;2022-08-03T16:18:43;3.50;;;3.30;;